createdAt,value
2022-10-03T00:02:27.272Z,15.24
2022-10-03T00:05:12.321Z,15.14
2022-10-03T00:07:58.002Z,15.07
2022-10-03T00:10:37.638Z,15.03
2022-10-03T00:13:22.280Z,14.99
2022-10-03T00:16:03.377Z,14.96
2022-10-03T00:18:45.491Z,14.94
2022-10-03T00:21:34.462Z,14.88
2022-10-03T00:24:15.496Z,14.83
2022-10-03T00:26:53.500Z,14.84
2022-10-03T00:29:41.705Z,14.84
2022-10-03T00:32:28.139Z,14.87
2022-10-03T00:35:15.113Z,14.94
2022-10-03T00:37:57.530Z,15.04
2022-10-03T00:40:40.961Z,15.14
2022-10-03T00:43:34.859Z,15.20
2022-10-03T00:46:29.995Z,15.24
2022-10-03T00:49:28.845Z,15.24
2022-10-03T00:52:18.593Z,15.19
2022-10-03T00:55:00.789Z,15.10
2022-10-03T00:57:58.928Z,15.06
2022-10-03T01:00:32.471Z,15.05
2022-10-03T01:03:29.954Z,15.03
2022-10-03T01:06:16.543Z,15.01
2022-10-03T01:09:10.269Z,15.01
2022-10-03T01:11:54.075Z,15.01
2022-10-03T01:14:45.368Z,15.05
2022-10-03T01:17:23.871Z,15.05
2022-10-03T01:20:14.390Z,15.05
2022-10-03T01:23:10.622Z,15.09
2022-10-03T01:25:46.827Z,15.15
2022-10-03T01:28:58.664Z,15.19
2022-10-03T01:31:34.732Z,15.14
2022-10-03T01:34:12.515Z,15.17
2022-10-03T01:36:53.378Z,15.18
2022-10-03T01:39:33.018Z,15.12
2022-10-03T01:42:10.248Z,15.09
2022-10-03T01:44:54.127Z,14.92
2022-10-03T01:47:29.148Z,14.82
2022-10-03T01:50:06.415Z,14.78
2022-10-03T01:52:46.193Z,14.64
2022-10-03T01:55:26.881Z,14.60
2022-10-03T01:58:02.272Z,14.57
2022-10-03T02:00:41.929Z,14.60
2022-10-03T02:03:22.793Z,14.64
2022-10-03T02:06:02.204Z,14.59
2022-10-03T02:08:47.225Z,14.58
2022-10-03T02:11:31.672Z,14.57
2022-10-03T02:14:13.122Z,14.61
2022-10-03T02:16:47.042Z,14.65
2022-10-03T02:19:23.939Z,14.58
2022-10-03T02:21:58.248Z,14.57
2022-10-03T02:24:47.983Z,14.53
2022-10-03T02:28:02.596Z,14.41
2022-10-03T02:30:38.944Z,14.42
2022-10-03T02:33:46.357Z,14.37
2022-10-03T02:36:52.920Z,14.23
2022-10-03T02:39:43.351Z,14.16
2022-10-03T02:42:41.880Z,14.08
2022-10-03T02:45:39.862Z,14.05
2022-10-03T02:48:37.316Z,14.02
2022-10-03T02:51:30.285Z,14.08
2022-10-03T02:54:20.652Z,14.05
2022-10-03T02:57:46.814Z,14.03
2022-10-03T03:00:20.998Z,14.11
2022-10-03T03:03:22.841Z,14.15
2022-10-03T03:06:34.213Z,14.22
2022-10-03T03:09:35.315Z,14.24
2022-10-03T03:12:40.464Z,14.25
2022-10-03T03:15:49.182Z,14.18
2022-10-03T03:18:30.633Z,14.18
2022-10-03T03:21:17.016Z,14.23
2022-10-03T03:24:09.277Z,14.24
2022-10-03T03:26:59.553Z,14.20
2022-10-03T03:29:43.319Z,14.17
2022-10-03T03:32:27.297Z,14.02
2022-10-03T03:35:06.081Z,14.03
2022-10-03T03:37:44.537Z,14.02
2022-10-03T03:40:32.469Z,14.03
2022-10-03T03:43:19.845Z,14.02
2022-10-03T03:46:02.501Z,13.97
2022-10-03T03:48:48.303Z,13.96
2022-10-03T03:51:31.139Z,13.96
2022-10-03T03:54:19.816Z,13.94
2022-10-03T03:57:01.929Z,13.90
2022-10-03T03:59:44.851Z,13.88
2022-10-03T04:02:28.947Z,13.84
2022-10-03T04:05:13.838Z,13.80
2022-10-03T04:07:59.609Z,13.78
2022-10-03T04:10:42.649Z,13.81
2022-10-03T04:13:30.588Z,13.87
2022-10-03T04:16:45.584Z,13.89
2022-10-03T04:19:28.689Z,13.88
2022-10-03T04:22:14.198Z,13.90
2022-10-03T04:25:18.274Z,13.87
2022-10-03T04:28:17.777Z,13.84
2022-10-03T04:31:02.652Z,13.83
2022-10-03T04:33:43.416Z,13.82
2022-10-03T04:36:43.524Z,13.82
2022-10-03T04:39:27.620Z,13.82
2022-10-03T04:42:04.385Z,13.83
2022-10-03T04:44:44.864Z,13.87
2022-10-03T04:47:23.685Z,13.91
2022-10-03T04:50:02.297Z,13.96
2022-10-03T04:52:39.578Z,14.00
2022-10-03T04:55:24.611Z,14.02
2022-10-03T04:58:04.737Z,14.04
2022-10-03T05:00:50.832Z,14.03
2022-10-03T05:03:33.065Z,14.12
2022-10-03T05:06:09.201Z,14.20
2022-10-03T05:08:48.113Z,14.27
2022-10-03T05:11:26.279Z,14.35
2022-10-03T05:14:06.177Z,14.41
2022-10-03T05:16:46.491Z,14.42
2022-10-03T05:19:39.118Z,14.46
2022-10-03T05:22:19.517Z,14.56
2022-10-03T05:24:59.400Z,14.64
2022-10-03T05:27:37.742Z,14.70
2022-10-03T05:30:15.460Z,14.68
2022-10-03T05:32:51.606Z,14.64
2022-10-03T05:35:32.725Z,14.69
2022-10-03T05:38:20.421Z,14.78
2022-10-03T05:41:05.126Z,14.91
2022-10-03T05:43:50.562Z,15.03
2022-10-03T05:46:40.387Z,15.15
2022-10-03T05:49:27.382Z,15.20
2022-10-03T05:52:19.544Z,15.22
2022-10-03T05:55:15.849Z,15.26
2022-10-03T05:58:18.442Z,15.30
2022-10-03T06:01:07.450Z,15.28
2022-10-03T06:04:05.750Z,15.27
2022-10-03T06:06:49.703Z,15.23
2022-10-03T06:09:40.147Z,15.23
2022-10-03T06:12:15.004Z,15.22
2022-10-03T06:15:17.907Z,15.19
2022-10-03T06:18:04.723Z,15.18
2022-10-03T06:21:17.678Z,15.18
2022-10-03T06:24:22.343Z,15.14
2022-10-03T06:27:24.060Z,15.16
2022-10-03T06:30:20.543Z,15.23
2022-10-03T06:33:38.838Z,15.24
2022-10-03T06:36:36.206Z,15.28
2022-10-03T06:39:45.504Z,15.33
2022-10-03T06:42:48.163Z,15.42
2022-10-03T06:45:55.701Z,15.45
2022-10-03T06:48:51.306Z,15.46
2022-10-03T06:51:46.492Z,15.41
2022-10-03T06:54:58.349Z,15.36
2022-10-03T06:57:46.431Z,15.41
2022-10-03T07:00:21.536Z,15.43
2022-10-03T07:03:14.526Z,15.45
2022-10-03T07:05:58.224Z,15.43
2022-10-03T07:09:03.113Z,15.37
2022-10-03T07:11:49.798Z,15.41
2022-10-03T07:14:53.155Z,15.45
2022-10-03T07:17:28.946Z,15.44
2022-10-03T07:20:20.140Z,15.44
2022-10-03T07:23:14.628Z,15.53
2022-10-03T07:26:27.651Z,15.60
2022-10-03T07:29:15.850Z,15.68
2022-10-03T07:32:02.132Z,15.76
2022-10-03T07:35:08.208Z,15.88
2022-10-03T07:38:09.136Z,15.93
2022-10-03T07:41:00.052Z,16.00
2022-10-03T07:43:56.260Z,16.09
2022-10-03T07:47:10.673Z,16.23
2022-10-03T07:50:31.260Z,16.38
2022-10-03T07:53:17.360Z,16.46
2022-10-03T07:56:09.324Z,16.53
2022-10-03T07:59:11.613Z,16.62
2022-10-03T08:01:54.740Z,16.72
2022-10-03T08:04:51.233Z,16.83
2022-10-03T08:07:42.976Z,16.90
2022-10-03T08:10:24.541Z,17.00
2022-10-03T08:13:28.303Z,17.06
2022-10-03T08:16:16.352Z,17.12
2022-10-03T08:19:14.535Z,17.21
2022-10-03T08:21:57.210Z,17.30
2022-10-03T08:24:34.420Z,17.39
2022-10-03T08:27:35.342Z,17.43
2022-10-03T08:30:21.304Z,17.52
2022-10-03T08:33:05.796Z,17.49
2022-10-03T08:35:58.836Z,17.53
2022-10-03T08:39:02.318Z,17.62
2022-10-03T08:42:11.304Z,17.67
2022-10-03T08:44:55.697Z,17.78
2022-10-03T08:48:02.707Z,17.84
2022-10-03T08:50:46.996Z,17.96
2022-10-03T08:53:47.879Z,18.05
2022-10-03T08:56:22.855Z,18.12
2022-10-03T08:59:34.500Z,18.13
2022-10-03T09:02:39.652Z,18.11
2022-10-03T09:05:47.525Z,18.22
2022-10-03T09:08:52.287Z,18.31
2022-10-03T09:11:41.141Z,18.40
2022-10-03T09:14:47.164Z,18.64
2022-10-03T09:17:57.073Z,18.86
2022-10-03T09:21:15.449Z,19.08
2022-10-03T09:24:07.204Z,19.45
2022-10-03T09:27:12.622Z,19.89
2022-10-03T09:30:20.570Z,20.42
2022-10-03T09:33:34.533Z,20.86
2022-10-03T09:36:13.212Z,21.13
2022-10-03T09:39:06.546Z,21.34
2022-10-03T09:42:13.603Z,21.64
2022-10-03T09:45:24.476Z,21.86
2022-10-03T09:48:13.343Z,22.19
2022-10-03T09:51:30.068Z,22.56
2022-10-03T09:54:35.551Z,22.98
2022-10-03T09:57:38.672Z,23.23
2022-10-03T10:00:34.981Z,23.49
2022-10-03T10:03:29.724Z,23.74
2022-10-03T10:06:24.634Z,23.77
2022-10-03T10:09:29.479Z,23.50
2022-10-03T10:12:24.474Z,23.29
2022-10-03T10:15:44.442Z,23.51
2022-10-03T10:18:35.101Z,23.73
2022-10-03T10:21:31.723Z,24.01
2022-10-03T10:24:18.742Z,23.88
2022-10-03T10:27:14.069Z,23.49
2022-10-03T10:30:20.732Z,23.36
2022-10-03T10:33:20.755Z,23.24
2022-10-03T10:36:16.900Z,23.26
2022-10-03T10:39:32.320Z,23.49
2022-10-03T10:42:37.356Z,23.73
2022-10-03T10:45:28.674Z,23.64
2022-10-03T10:48:45.770Z,23.50
2022-10-03T10:51:42.092Z,23.55
2022-10-03T10:54:55.835Z,23.78
2022-10-03T10:57:54.119Z,23.68
2022-10-03T11:00:32.640Z,23.33
2022-10-03T11:03:50.648Z,23.38
2022-10-03T11:06:54.379Z,23.82
2022-10-03T11:09:45.133Z,24.18
2022-10-03T11:12:49.461Z,24.29
2022-10-03T11:16:04.158Z,24.35
2022-10-03T11:18:56.654Z,24.49
2022-10-03T11:21:59.710Z,24.19
2022-10-03T11:25:14.604Z,23.57
2022-10-03T11:28:07.425Z,23.41
2022-10-03T11:31:01.831Z,23.47
2022-10-03T11:34:12.507Z,23.33
2022-10-03T11:37:01.887Z,23.72
2022-10-03T11:39:43.323Z,24.05
2022-10-03T11:42:23.363Z,24.47
2022-10-03T11:45:00.153Z,24.90
2022-10-03T11:47:55.277Z,25.10
2022-10-03T11:50:47.891Z,24.95
2022-10-03T11:53:23.399Z,25.14
2022-10-03T11:56:07.588Z,25.09
2022-10-03T11:58:50.981Z,25.43
2022-10-03T12:01:29.048Z,25.75
2022-10-03T12:04:10.088Z,25.78
2022-10-03T12:07:10.880Z,25.86
2022-10-03T12:09:55.156Z,25.92
2022-10-03T12:12:36.029Z,26.01
2022-10-03T12:15:24.224Z,25.97
2022-10-03T12:18:05.243Z,25.83
2022-10-03T12:20:53.198Z,25.95
2022-10-03T12:23:32.907Z,26.08
2022-10-03T12:26:06.277Z,25.54
2022-10-03T12:28:41.101Z,25.13
2022-10-03T12:31:19.358Z,24.72
2022-10-03T12:33:56.387Z,23.78
2022-10-03T12:36:31.066Z,22.93
2022-10-03T12:39:14.421Z,22.31
2022-10-03T12:42:04.934Z,21.77
2022-10-03T12:44:47.268Z,21.54
2022-10-03T12:47:54.327Z,21.18
2022-10-03T12:50:39.953Z,20.78
2022-10-03T12:53:27.912Z,20.75
2022-10-03T12:56:12.804Z,20.72
2022-10-03T12:58:57.053Z,21.00
2022-10-03T13:01:40.450Z,21.21
2022-10-03T13:04:23.002Z,21.18
2022-10-03T13:07:05.919Z,21.01
2022-10-03T13:09:55.378Z,20.77
2022-10-03T13:12:39.391Z,20.37
2022-10-03T13:15:41.385Z,20.14
2022-10-03T13:18:33.604Z,20.22
2022-10-03T13:21:33.419Z,20.55
2022-10-03T13:24:07.198Z,20.84
2022-10-03T13:26:52.236Z,20.69
2022-10-03T13:29:33.217Z,20.50
2022-10-03T13:32:16.394Z,20.67
2022-10-03T13:35:24.623Z,20.90
2022-10-03T13:38:17.035Z,21.00
2022-10-03T13:40:53.022Z,20.92
2022-10-03T13:43:30.266Z,20.77
2022-10-03T13:46:03.599Z,20.67
2022-10-03T13:48:36.449Z,20.53
2022-10-03T13:51:14.665Z,20.42
2022-10-03T13:54:01.565Z,20.36
2022-10-03T13:56:44.593Z,20.44
2022-10-03T13:59:32.542Z,20.53
2022-10-03T14:02:14.833Z,20.57
2022-10-03T14:05:28.359Z,20.52
2022-10-03T14:08:09.191Z,20.60
2022-10-03T14:11:01.953Z,20.66
2022-10-03T14:13:33.764Z,20.70
2022-10-03T14:16:11.468Z,20.63
2022-10-03T14:18:49.530Z,20.55
2022-10-03T14:21:47.074Z,20.45
2022-10-03T14:24:46.641Z,20.45
2022-10-03T14:27:36.297Z,20.45
2022-10-03T14:30:13.722Z,20.55
2022-10-03T14:32:54.921Z,20.59
2022-10-03T14:35:46.658Z,20.57
2022-10-03T14:39:02.459Z,20.54
2022-10-03T14:42:07.535Z,20.46
2022-10-03T14:44:43.646Z,20.27
2022-10-03T14:47:18.682Z,20.20
2022-10-03T14:49:59.060Z,20.17
2022-10-03T14:52:39.035Z,20.19
2022-10-03T14:55:17.817Z,20.24
2022-10-03T14:58:09.860Z,20.33
2022-10-03T15:00:46.119Z,20.41
2022-10-03T15:03:38.302Z,20.46
2022-10-03T15:06:37.942Z,20.51
2022-10-03T15:09:15.145Z,20.53
2022-10-03T15:11:52.474Z,20.54
2022-10-03T15:14:24.923Z,20.50
2022-10-03T15:16:56.115Z,20.50
2022-10-03T15:19:31.572Z,20.48
2022-10-03T15:22:12.947Z,20.50
2022-10-03T15:24:45.468Z,20.48
2022-10-03T15:27:22.289Z,20.40
2022-10-03T15:29:57.223Z,20.30
2022-10-03T15:32:34.202Z,20.21
2022-10-03T15:35:08.091Z,20.11
2022-10-03T15:37:47.589Z,20.06
2022-10-03T15:40:39.375Z,20.06
2022-10-03T15:43:29.934Z,20.02
2022-10-03T15:46:16.765Z,19.98
2022-10-03T15:48:55.396Z,19.97
2022-10-03T15:51:28.545Z,19.88
2022-10-03T15:54:03.305Z,19.74
2022-10-03T15:56:41.552Z,19.65
2022-10-03T15:59:21.234Z,19.61
2022-10-03T16:01:55.832Z,19.56
2022-10-03T16:04:29.884Z,19.54
2022-10-03T16:07:09.670Z,19.53
2022-10-03T16:09:52.541Z,19.53
2022-10-03T16:12:55.377Z,19.50
2022-10-03T16:15:35.545Z,19.47
2022-10-03T16:18:12.768Z,19.39
2022-10-03T16:20:49.769Z,19.31
2022-10-03T16:23:23.072Z,19.23
2022-10-03T16:25:58.094Z,19.08
2022-10-03T16:28:34.671Z,18.94
2022-10-03T16:31:09.385Z,18.86
2022-10-03T16:33:44.323Z,18.78
2022-10-03T16:36:21.264Z,18.71
2022-10-03T16:38:59.389Z,18.65
2022-10-03T16:41:33.115Z,18.52
2022-10-03T16:44:11.299Z,18.44
2022-10-03T16:46:47.075Z,18.34
2022-10-03T16:49:54.931Z,18.21
2022-10-03T16:52:33.457Z,18.14
2022-10-03T16:55:08.696Z,18.04
2022-10-03T16:57:45.824Z,17.94
2022-10-03T17:00:22.228Z,17.85
2022-10-03T17:02:55.607Z,17.73
2022-10-03T17:05:28.392Z,17.59
2022-10-03T17:08:18.152Z,17.49
2022-10-03T17:10:58.840Z,17.45
2022-10-03T17:13:43.336Z,17.44
2022-10-03T17:16:22.214Z,17.40
2022-10-03T17:19:09.475Z,17.33
2022-10-03T17:21:43.732Z,17.24
2022-10-03T17:24:18.074Z,17.19
2022-10-03T17:26:53.800Z,17.14
2022-10-03T17:29:30.327Z,17.11
2022-10-03T17:32:04.550Z,17.06
2022-10-03T17:34:39.281Z,17.03
2022-10-03T17:37:22.026Z,17.02
2022-10-03T17:39:57.353Z,17.02
2022-10-03T17:42:37.367Z,16.98
2022-10-03T17:45:35.290Z,16.90
2022-10-03T17:48:15.781Z,16.81
2022-10-03T17:50:58.070Z,16.83
2022-10-03T17:53:32.140Z,16.87
2022-10-03T17:56:09.277Z,16.95
2022-10-03T17:58:45.553Z,16.99
2022-10-03T18:01:19.942Z,16.99
2022-10-03T18:03:54.880Z,16.97
2022-10-03T18:06:43.912Z,16.97
2022-10-03T18:09:26.972Z,17.00
2022-10-03T18:12:06.393Z,17.01
2022-10-03T18:14:48.194Z,17.02
2022-10-03T18:17:23.985Z,17.01
2022-10-03T18:20:25.133Z,16.96
2022-10-03T18:23:02.774Z,16.95
2022-10-03T18:26:20.678Z,17.00
2022-10-03T18:28:59.768Z,17.02
2022-10-03T18:31:35.331Z,17.01
2022-10-03T18:34:13.887Z,17.01
2022-10-03T18:36:48.944Z,17.03
2022-10-03T18:39:23.608Z,17.05
2022-10-03T18:41:59.729Z,17.05
2022-10-03T18:44:33.191Z,17.05
2022-10-03T18:47:17.473Z,17.04
2022-10-03T18:49:55.917Z,17.02
2022-10-03T18:52:33.320Z,17.00
2022-10-03T18:55:13.810Z,16.98
2022-10-03T18:57:51.320Z,16.96
2022-10-03T19:00:26.635Z,16.96
2022-10-03T19:03:02.879Z,16.94
2022-10-03T19:05:37.710Z,16.91
2022-10-03T19:08:17.732Z,16.92
2022-10-03T19:10:51.815Z,16.92
2022-10-03T19:13:33.928Z,16.85
2022-10-03T19:16:18.108Z,16.75
2022-10-03T19:19:01.875Z,16.74
2022-10-03T19:21:39.007Z,16.73
2022-10-03T19:24:17.636Z,16.66
2022-10-03T19:26:54.113Z,16.61
2022-10-03T19:29:28.944Z,16.54
2022-10-03T19:32:05.769Z,16.52
2022-10-03T19:34:40.755Z,16.53
2022-10-03T19:37:17.363Z,16.48
2022-10-03T19:39:49.548Z,16.28
2022-10-03T19:42:36.581Z,15.87
2022-10-03T19:45:15.395Z,15.61
2022-10-03T19:47:52.290Z,15.58
2022-10-03T19:50:29.980Z,15.58
2022-10-03T19:53:02.715Z,15.52
2022-10-03T19:55:39.209Z,15.47
2022-10-03T19:58:23.822Z,15.41
2022-10-03T20:00:58.055Z,15.43
2022-10-03T20:03:39.801Z,15.46
2022-10-03T20:06:19.092Z,15.44
2022-10-03T20:08:55.298Z,15.44
2022-10-03T20:11:38.329Z,15.49
2022-10-03T20:14:12.516Z,15.56
2022-10-03T20:16:49.529Z,15.58
2022-10-03T20:19:25.487Z,15.62
2022-10-03T20:21:58.886Z,15.68
2022-10-03T20:24:35.494Z,15.73
2022-10-03T20:27:21.164Z,15.75
2022-10-03T20:30:02.850Z,15.77
2022-10-03T20:32:36.160Z,15.79
2022-10-03T20:35:13.249Z,15.82
2022-10-03T20:37:50.329Z,15.82
2022-10-03T20:40:30.822Z,15.76
2022-10-03T20:43:13.256Z,15.67
2022-10-03T20:45:46.668Z,15.54
2022-10-03T20:48:22.634Z,15.44
2022-10-03T20:50:57.523Z,15.32
2022-10-03T20:53:31.104Z,15.26
2022-10-03T20:56:06.433Z,15.19
2022-10-03T20:58:42.903Z,15.14
2022-10-03T21:01:20.626Z,15.17
2022-10-03T21:04:08.402Z,15.18
2022-10-03T21:06:53.216Z,15.22
2022-10-03T21:09:35.620Z,15.24
2022-10-03T21:12:08.977Z,15.26
2022-10-03T21:14:43.128Z,15.28
2022-10-03T21:17:18.597Z,15.32
2022-10-03T21:19:54.506Z,15.36
2022-10-03T21:22:29.277Z,15.35
2022-10-03T21:25:03.580Z,15.34
2022-10-03T21:27:36.729Z,15.19
2022-10-03T21:30:19.485Z,15.09
2022-10-03T21:33:04.559Z,15.10
2022-10-03T21:35:39.190Z,15.10
2022-10-03T21:38:23.842Z,15.10
2022-10-03T21:41:13.741Z,15.12
2022-10-03T21:43:51.835Z,15.13
2022-10-03T21:46:30.204Z,15.15
2022-10-03T21:49:30.712Z,15.17
2022-10-03T21:52:20.881Z,15.12
2022-10-03T21:55:02.007Z,15.06
2022-10-03T21:57:43.905Z,15.03
2022-10-03T22:00:18.021Z,14.89
2022-10-03T22:02:59.899Z,14.74
2022-10-03T22:05:39.345Z,14.61
2022-10-03T22:08:24.297Z,14.53
2022-10-03T22:11:05.280Z,14.48
2022-10-03T22:13:40.449Z,14.44
2022-10-03T22:16:19.087Z,14.38
2022-10-03T22:19:21.458Z,14.28
2022-10-03T22:22:11.227Z,14.15
2022-10-03T22:24:53.717Z,14.04
2022-10-03T22:27:29.031Z,13.90
2022-10-03T22:30:05.825Z,13.82
2022-10-03T22:32:42.387Z,13.80
2022-10-03T22:35:22.983Z,13.78
2022-10-03T22:37:55.229Z,13.82
2022-10-03T22:40:27.841Z,13.88
2022-10-03T22:43:01.921Z,13.87
2022-10-03T22:45:37.165Z,13.92
2022-10-03T22:48:14.084Z,13.95
2022-10-03T22:50:46.261Z,13.94
2022-10-03T22:53:21.577Z,13.88
2022-10-03T22:55:58.594Z,13.81
2022-10-03T22:58:32.266Z,13.77
2022-10-03T23:01:05.254Z,13.75
2022-10-03T23:03:38.314Z,13.76
2022-10-03T23:06:39.479Z,13.78
2022-10-03T23:09:18.945Z,13.82
2022-10-03T23:11:53.016Z,13.81
2022-10-03T23:14:28.484Z,13.76
2022-10-03T23:17:09.671Z,13.70
2022-10-03T23:19:48.606Z,13.71
2022-10-03T23:22:24.642Z,13.79
2022-10-03T23:24:59.694Z,13.86
2022-10-03T23:27:57.700Z,13.93
2022-10-03T23:30:54.247Z,13.99
2022-10-03T23:33:54.067Z,14.03
2022-10-03T23:36:27.033Z,14.07
2022-10-03T23:39:02.885Z,14.05
2022-10-03T23:41:48.523Z,14.01
2022-10-03T23:44:48.923Z,13.88
2022-10-03T23:47:25.173Z,13.74
2022-10-03T23:49:57.526Z,13.70
2022-10-03T23:52:36.049Z,13.67
2022-10-03T23:55:10.032Z,13.68
2022-10-03T23:57:44.108Z,13.71
